createdAt,value
2018-03-19T00:00:52.066Z,74.40
2018-03-19T00:03:20.412Z,75.20
2018-03-19T00:05:48.836Z,74.70
2018-03-19T00:08:17.163Z,74.30
2018-03-19T00:10:45.516Z,74.40
2018-03-19T00:13:13.859Z,74.50
2018-03-19T00:15:42.199Z,75.30
2018-03-19T00:18:10.546Z,75.60
2018-03-19T00:20:38.892Z,75.10
2018-03-19T00:23:07.268Z,75.50
2018-03-19T00:25:35.616Z,75.80
2018-03-19T00:28:03.941Z,76.20
2018-03-19T00:30:32.301Z,75.90
2018-03-19T00:33:00.631Z,77.00
2018-03-19T00:35:29.035Z,76.40
2018-03-19T00:37:57.386Z,76.60
2018-03-19T00:40:25.724Z,76.30
2018-03-19T00:42:54.063Z,76.10
2018-03-19T00:45:22.399Z,76.60
2018-03-19T00:47:50.760Z,77.70
2018-03-19T00:50:19.132Z,77.70
2018-03-19T00:52:47.496Z,77.50
2018-03-19T00:55:15.879Z,77.70
2018-03-19T00:57:44.200Z,78.00
2018-03-19T01:00:13.284Z,77.90
2018-03-19T01:02:41.697Z,78.60
2018-03-19T01:05:10.028Z,79.10
2018-03-19T01:07:38.376Z,79.20
2018-03-19T01:10:06.739Z,79.40
2018-03-19T01:12:35.085Z,78.90
2018-03-19T01:15:03.421Z,78.70
2018-03-19T01:17:31.780Z,78.90
2018-03-19T01:20:00.129Z,79.20
2018-03-19T01:22:28.476Z,78.90
2018-03-19T01:24:56.807Z,78.70
2018-03-19T01:27:25.194Z,78.90
2018-03-19T01:29:53.549Z,79.60
2018-03-19T01:32:21.886Z,79.80
2018-03-19T01:34:50.259Z,80.10
2018-03-19T01:37:18.611Z,79.80
2018-03-19T01:39:47.022Z,80.20
2018-03-19T01:42:15.444Z,79.90
2018-03-19T01:44:43.781Z,79.50
2018-03-19T01:47:12.139Z,79.10
2018-03-19T01:49:40.476Z,78.50
2018-03-19T01:52:08.825Z,79.40
2018-03-19T01:54:37.171Z,79.80
2018-03-19T01:57:05.537Z,79.40
2018-03-19T01:59:33.920Z,79.90
2018-03-19T02:02:02.326Z,80.20
2018-03-19T02:04:30.664Z,80.50
2018-03-19T02:06:59.048Z,80.20
2018-03-19T02:09:27.389Z,80.90
2018-03-19T02:11:55.730Z,80.20
2018-03-19T02:14:24.066Z,79.70
2018-03-19T02:16:52.477Z,82.30
2018-03-19T02:19:20.827Z,80.00
2018-03-19T02:21:49.169Z,79.80
2018-03-19T02:24:17.520Z,80.30
2018-03-19T02:26:45.929Z,80.60
2018-03-19T02:29:14.260Z,81.00
2018-03-19T02:31:42.749Z,80.80
2018-03-19T02:34:11.114Z,80.80
2018-03-19T02:36:39.481Z,81.10
2018-03-19T02:39:07.805Z,81.90
2018-03-19T02:41:36.188Z,82.10
2018-03-19T02:44:04.540Z,82.40
2018-03-19T02:46:32.890Z,82.60
2018-03-19T02:49:01.230Z,82.70
2018-03-19T02:51:29.590Z,83.10
2018-03-19T02:53:57.919Z,83.10
2018-03-19T02:56:26.252Z,83.10
2018-03-19T02:58:54.604Z,83.10
2018-03-19T03:01:23.101Z,82.90
2018-03-19T03:03:51.440Z,83.50
2018-03-19T03:06:19.788Z,83.30
2018-03-19T03:08:48.119Z,83.20
2018-03-19T03:11:16.474Z,82.80
2018-03-19T03:13:44.814Z,83.10
2018-03-19T03:16:13.199Z,83.40
2018-03-19T03:18:41.532Z,83.90
2018-03-19T03:21:09.875Z,84.10
2018-03-19T03:23:38.347Z,83.90
2018-03-19T03:26:06.701Z,84.10
2018-03-19T03:28:35.032Z,84.60
2018-03-19T03:31:03.366Z,84.40
2018-03-19T03:33:31.742Z,84.70
2018-03-19T03:36:00.215Z,84.70
2018-03-19T03:38:28.559Z,84.80
2018-03-19T03:40:57.057Z,84.70
2018-03-19T03:43:25.401Z,84.70
2018-03-19T03:45:53.723Z,85.20
2018-03-19T03:48:22.077Z,85.20
2018-03-19T03:50:50.421Z,85.40
2018-03-19T03:53:18.764Z,85.40
2018-03-19T03:55:47.110Z,85.00
2018-03-19T03:58:16.108Z,85.30
2018-03-19T04:00:44.470Z,85.10
2018-03-19T04:03:12.825Z,85.60
2018-03-19T04:05:41.164Z,85.40
2018-03-19T04:08:09.533Z,86.00
2018-03-19T04:10:37.855Z,86.70
2018-03-19T04:13:06.233Z,86.70
2018-03-19T04:15:34.627Z,86.60
2018-03-19T04:18:02.981Z,87.10
2018-03-19T04:20:31.337Z,87.20
2018-03-19T04:22:59.681Z,87.50
2018-03-19T04:25:28.067Z,87.60
2018-03-19T04:27:56.428Z,87.80
2018-03-19T04:30:24.758Z,87.50
2018-03-19T04:32:53.095Z,87.30
2018-03-19T04:35:21.440Z,87.40
2018-03-19T04:37:49.783Z,87.50
2018-03-19T04:40:18.134Z,87.50
2018-03-19T04:42:46.509Z,87.50
2018-03-19T04:45:14.847Z,88.60
2018-03-19T04:47:43.189Z,88.30
2018-03-19T04:50:11.528Z,88.40
2018-03-19T04:52:39.887Z,88.40
2018-03-19T04:55:08.304Z,88.50
2018-03-19T04:57:36.660Z,88.30
2018-03-19T05:00:06.148Z,88.30
2018-03-19T05:02:34.948Z,88.40
2018-03-19T05:05:03.288Z,88.50
2018-03-19T05:07:31.637Z,88.60
2018-03-19T05:09:59.983Z,88.90
2018-03-19T05:12:28.496Z,89.10
2018-03-19T05:14:56.849Z,90.00
2018-03-19T05:17:25.192Z,90.10
2018-03-19T05:19:53.689Z,90.00
2018-03-19T05:22:22.129Z,90.00
2018-03-19T05:24:50.654Z,90.10
2018-03-19T05:27:18.992Z,90.00
2018-03-19T05:29:47.348Z,89.90
2018-03-19T05:32:15.784Z,89.70
2018-03-19T05:34:44.227Z,89.40
2018-03-19T05:37:12.570Z,89.70
2018-03-19T05:39:40.900Z,90.20
2018-03-19T05:42:09.244Z,89.80
2018-03-19T05:44:37.579Z,89.40
2018-03-19T05:47:06.456Z,89.50
2018-03-19T05:49:34.796Z,89.20
2018-03-19T05:52:03.134Z,89.30
2018-03-19T05:54:31.489Z,89.20
2018-03-19T05:56:59.829Z,88.90
2018-03-19T05:59:28.181Z,88.90
2018-03-19T06:01:57.384Z,89.00
2018-03-19T06:04:25.719Z,88.90
2018-03-19T06:06:54.053Z,89.00
2018-03-19T06:09:22.412Z,88.40
2018-03-19T06:11:50.752Z,88.40
2018-03-19T06:14:19.636Z,87.70
2018-03-19T06:16:48.650Z,87.30
2018-03-19T06:19:17.308Z,87.40
2018-03-19T06:21:45.732Z,87.30
2018-03-19T06:24:14.109Z,87.20
2018-03-19T06:26:42.588Z,86.80
2018-03-19T06:29:10.934Z,86.80
2018-03-19T06:31:39.271Z,86.60
2018-03-19T06:34:07.610Z,86.40
2018-03-19T06:36:35.959Z,86.30
2018-03-19T06:39:04.465Z,86.10
2018-03-19T06:41:32.809Z,85.80
2018-03-19T06:44:01.163Z,85.60
2018-03-19T06:46:29.511Z,85.30
2018-03-19T06:48:57.850Z,85.20
2018-03-19T06:51:26.187Z,84.70
2018-03-19T06:53:54.574Z,84.50
2018-03-19T06:56:22.930Z,84.10
2018-03-19T06:58:51.504Z,84.00
2018-03-19T07:01:21.304Z,83.50
2018-03-19T07:03:49.661Z,83.00
2018-03-19T07:06:18.063Z,82.40
2018-03-19T07:08:46.409Z,83.60
2018-03-19T07:11:14.977Z,82.00
2018-03-19T07:13:43.300Z,81.40
2018-03-19T07:16:11.647Z,80.90
2018-03-19T07:18:39.988Z,80.90
2018-03-19T07:21:08.359Z,79.90
2018-03-19T07:23:36.683Z,79.40
2018-03-19T07:26:05.056Z,79.40
2018-03-19T07:28:33.656Z,79.00
2018-03-19T07:31:02.029Z,78.60
2018-03-19T07:33:30.371Z,76.90
2018-03-19T07:35:58.720Z,77.90
2018-03-19T07:38:27.300Z,76.80
2018-03-19T07:40:55.655Z,75.90
2018-03-19T07:43:24.008Z,74.30
2018-03-19T07:45:52.349Z,74.50
2018-03-19T07:48:20.707Z,74.10
2018-03-19T07:50:49.071Z,74.40
2018-03-19T07:53:17.418Z,75.10
2018-03-19T07:55:45.771Z,75.40
2018-03-19T07:58:14.101Z,74.80
2018-03-19T08:00:42.464Z,72.80
2018-03-19T08:03:10.798Z,68.20
2018-03-19T08:05:39.151Z,65.50
2018-03-19T08:08:07.500Z,66.20
2018-03-19T08:10:36.019Z,65.30
2018-03-19T08:13:04.363Z,63.60
2018-03-19T08:15:32.881Z,62.70
2018-03-19T08:18:01.224Z,65.00
2018-03-19T08:20:29.620Z,64.00
2018-03-19T08:23:00.660Z,61.30
2018-03-19T08:25:29.004Z,61.40
2018-03-19T08:27:57.342Z,64.00
2018-03-19T08:30:25.689Z,65.30
2018-03-19T08:32:54.063Z,61.50
2018-03-19T08:35:22.402Z,57.10
2018-03-19T08:37:50.730Z,57.00
2018-03-19T08:40:19.088Z,57.40
2018-03-19T08:42:47.433Z,56.90
2018-03-19T08:45:15.956Z,57.70
2018-03-19T08:47:44.396Z,57.80
2018-03-19T08:50:12.780Z,56.10
2018-03-19T08:52:41.151Z,55.50
2018-03-19T08:55:09.488Z,54.90
2018-03-19T08:57:37.837Z,56.10
2018-03-19T09:00:06.178Z,53.00
2018-03-19T09:02:34.527Z,52.70
2018-03-19T09:05:02.860Z,52.60
2018-03-19T09:07:31.250Z,52.10
2018-03-19T09:09:59.622Z,52.80
2018-03-19T09:12:27.931Z,53.20
2018-03-19T09:14:56.288Z,49.70
2018-03-19T09:17:24.624Z,49.50
2018-03-19T09:19:53.080Z,50.80
2018-03-19T09:22:21.420Z,50.20
2018-03-19T09:24:49.776Z,50.60
2018-03-19T09:27:18.239Z,48.10
2018-03-19T09:29:46.652Z,49.10
2018-03-19T09:32:14.987Z,49.10
2018-03-19T09:34:43.328Z,46.20
2018-03-19T09:37:11.741Z,43.50
2018-03-19T09:39:40.154Z,43.60
2018-03-19T09:42:08.569Z,45.60
2018-03-19T09:44:37.085Z,43.40
2018-03-19T09:47:05.581Z,41.40
2018-03-19T09:49:34.017Z,40.00
2018-03-19T09:52:02.348Z,42.90
2018-03-19T09:54:30.684Z,41.30
2018-03-19T09:56:59.062Z,39.80
2018-03-19T09:59:27.424Z,37.80
2018-03-19T10:01:55.820Z,36.70
2018-03-19T10:04:24.167Z,35.70
2018-03-19T10:06:52.852Z,36.10
2018-03-19T10:09:21.183Z,33.80
2018-03-19T10:11:49.529Z,33.00
2018-03-19T10:14:17.864Z,35.20
2018-03-19T10:16:46.213Z,34.70
2018-03-19T10:19:14.555Z,32.40
2018-03-19T10:21:42.911Z,32.10
2018-03-19T10:24:11.824Z,31.40
2018-03-19T10:26:40.755Z,30.30
2018-03-19T10:29:09.080Z,30.10
2018-03-19T10:31:37.450Z,29.20
2018-03-19T10:34:05.782Z,28.60
2018-03-19T10:36:34.167Z,28.40
2018-03-19T10:39:03.080Z,28.50
2018-03-19T10:41:31.421Z,28.30
2018-03-19T10:43:59.772Z,27.90
2018-03-19T10:46:28.136Z,27.50
2018-03-19T10:48:57.081Z,27.90
2018-03-19T10:51:25.560Z,28.00
2018-03-19T10:53:53.898Z,28.20
2018-03-19T10:56:22.283Z,27.00
2018-03-19T10:58:50.595Z,26.90
2018-03-19T11:01:24.524Z,26.60
2018-03-19T11:03:58.506Z,26.80
2018-03-19T11:06:32.890Z,26.20
2018-03-19T11:09:07.596Z,26.80
2018-03-19T11:11:35.953Z,26.10
2018-03-19T11:14:04.355Z,26.60
2018-03-19T11:16:32.669Z,25.90
2018-03-19T11:19:01.063Z,26.50
2018-03-19T11:21:29.384Z,26.70
2018-03-19T11:23:57.948Z,26.30
2018-03-19T11:26:26.285Z,27.10
2018-03-19T11:28:54.632Z,27.30
2018-03-19T11:31:23.110Z,26.00
2018-03-19T11:33:51.397Z,25.90
2018-03-19T11:36:19.801Z,26.40
2018-03-19T11:38:48.149Z,25.80
2018-03-19T11:41:16.492Z,25.80
2018-03-19T11:43:44.901Z,26.10
2018-03-19T11:46:13.416Z,26.50
2018-03-19T11:48:41.747Z,25.40
2018-03-19T11:51:10.091Z,25.30
2018-03-19T11:53:39.045Z,25.60
2018-03-19T11:56:07.430Z,26.10
2018-03-19T11:58:35.784Z,26.50
2018-03-19T12:01:04.129Z,25.70
2018-03-19T12:03:32.702Z,25.80
2018-03-19T12:06:01.032Z,26.00
2018-03-19T12:08:29.585Z,26.10
2018-03-19T12:10:57.929Z,26.10
2018-03-19T12:13:26.500Z,26.30
2018-03-19T12:15:54.908Z,25.80
2018-03-19T12:18:23.475Z,25.80
2018-03-19T12:20:51.864Z,26.40
2018-03-19T12:23:20.187Z,27.00
2018-03-19T12:25:48.660Z,27.10
2018-03-19T12:28:17.025Z,26.70
2018-03-19T12:30:45.452Z,26.10
2018-03-19T12:33:14.018Z,25.80
2018-03-19T12:35:42.377Z,26.10
2018-03-19T12:38:10.972Z,26.90
2018-03-19T12:40:39.541Z,26.40
2018-03-19T12:43:08.368Z,26.70
2018-03-19T12:45:36.809Z,26.10
2018-03-19T12:48:05.348Z,25.80
2018-03-19T12:50:33.757Z,25.20
2018-03-19T12:53:02.271Z,25.30
2018-03-19T12:55:30.688Z,25.20
2018-03-19T12:57:59.161Z,25.00
2018-03-19T13:00:27.489Z,25.40
2018-03-19T13:02:55.940Z,25.60
2018-03-19T13:05:24.320Z,27.00
2018-03-19T13:07:52.717Z,27.20
2018-03-19T13:10:21.143Z,27.90
2018-03-19T13:12:49.579Z,27.40
2018-03-19T13:15:17.965Z,27.60
2018-03-19T13:17:46.456Z,25.50
2018-03-19T13:20:14.759Z,25.60
2018-03-19T13:22:43.104Z,25.50
2018-03-19T13:25:11.598Z,24.60
2018-03-19T13:27:39.954Z,22.90
2018-03-19T13:30:08.535Z,23.80
2018-03-19T13:32:38.302Z,23.20
2018-03-19T13:35:06.620Z,23.60
2018-03-19T13:37:34.969Z,23.00
2018-03-19T13:40:03.317Z,23.60
2018-03-19T13:42:31.654Z,22.80
2018-03-19T13:45:00.482Z,21.30
2018-03-19T13:47:29.103Z,21.70
2018-03-19T13:49:58.102Z,21.80
2018-03-19T13:52:27.319Z,22.60
2018-03-19T13:54:55.678Z,21.90
2018-03-19T13:57:24.017Z,21.50
2018-03-19T13:59:52.408Z,21.80
2018-03-19T14:02:20.892Z,22.30
2018-03-19T14:04:49.284Z,22.90
2018-03-19T14:07:17.643Z,21.70
2018-03-19T14:09:45.980Z,22.00
2018-03-19T14:12:14.311Z,21.60
2018-03-19T14:14:42.662Z,20.90
2018-03-19T14:17:11.068Z,20.10
2018-03-19T14:19:39.393Z,21.00
2018-03-19T14:22:07.708Z,21.80
2018-03-19T14:24:36.068Z,21.80
2018-03-19T14:27:04.401Z,20.90
2018-03-19T14:29:32.759Z,20.30
2018-03-19T14:32:01.172Z,20.40
2018-03-19T14:34:29.513Z,20.80
2018-03-19T14:36:57.860Z,20.40
2018-03-19T14:39:26.215Z,20.40
2018-03-19T14:41:54.563Z,20.20
2018-03-19T14:44:22.887Z,20.70
2018-03-19T14:46:51.252Z,21.00
2018-03-19T14:49:19.595Z,21.20
2018-03-19T14:51:47.937Z,20.80
2018-03-19T14:54:16.335Z,21.00
2018-03-19T14:56:44.681Z,21.00
2018-03-19T14:59:13.040Z,21.00
2018-03-19T15:01:41.386Z,21.40
2018-03-19T15:04:09.801Z,21.40
2018-03-19T15:06:38.167Z,20.70
2018-03-19T15:09:06.521Z,20.60
2018-03-19T15:11:35.208Z,21.00
2018-03-19T15:14:03.665Z,20.50
2018-03-19T15:16:32.130Z,20.50
2018-03-19T15:19:00.474Z,19.90
2018-03-19T15:21:28.846Z,20.20
2018-03-19T15:23:57.193Z,20.00
2018-03-19T15:26:25.556Z,20.60
2018-03-19T15:28:53.916Z,20.30
2018-03-19T15:31:22.309Z,20.00
2018-03-19T15:33:50.621Z,20.60
2018-03-19T15:36:19.080Z,19.90
2018-03-19T15:38:47.409Z,20.20
2018-03-19T15:41:15.746Z,20.40
2018-03-19T15:43:44.103Z,20.40
2018-03-19T15:46:12.447Z,20.50
2018-03-19T15:48:40.795Z,20.80
2018-03-19T15:51:09.442Z,21.00
2018-03-19T15:53:37.977Z,20.90
2018-03-19T15:56:06.325Z,21.20
2018-03-19T15:58:34.672Z,21.80
2018-03-19T16:01:03.025Z,21.90
2018-03-19T16:03:31.370Z,21.00
2018-03-19T16:05:59.832Z,21.20
2018-03-19T16:08:28.180Z,21.90
2018-03-19T16:10:56.576Z,23.20
2018-03-19T16:13:24.964Z,23.70
2018-03-19T16:15:53.855Z,23.90
2018-03-19T16:18:22.195Z,23.60
2018-03-19T16:20:50.539Z,23.40
2018-03-19T16:23:18.875Z,23.50
2018-03-19T16:25:47.237Z,24.20
2018-03-19T16:28:15.572Z,24.70
2018-03-19T16:30:43.926Z,24.90
2018-03-19T16:33:12.334Z,24.80
2018-03-19T16:35:40.666Z,24.90
2018-03-19T16:38:09.024Z,25.50
2018-03-19T16:40:37.376Z,25.60
2018-03-19T16:43:05.825Z,26.30
2018-03-19T16:45:34.199Z,26.40
2018-03-19T16:48:02.532Z,26.30
2018-03-19T16:50:30.876Z,26.50
2018-03-19T16:52:59.222Z,26.90
2018-03-19T16:55:27.566Z,27.60
2018-03-19T16:57:55.937Z,28.50
2018-03-19T17:00:24.283Z,29.00
2018-03-19T17:02:52.617Z,29.30
2018-03-19T17:05:21.037Z,29.70
2018-03-19T17:07:49.386Z,30.80
2018-03-19T17:10:17.769Z,31.50
2018-03-19T17:12:46.149Z,32.30
2018-03-19T17:15:14.449Z,33.00
2018-03-19T17:17:42.792Z,33.50
2018-03-19T17:20:11.181Z,34.00
2018-03-19T17:22:39.526Z,34.80
2018-03-19T17:25:07.984Z,35.30
2018-03-19T17:27:36.310Z,35.60
2018-03-19T17:30:04.690Z,36.00
2018-03-19T17:32:33.042Z,36.50
2018-03-19T17:35:01.386Z,37.50
2018-03-19T17:37:29.714Z,38.50
2018-03-19T17:39:58.043Z,39.90
2018-03-19T17:42:26.383Z,41.20
2018-03-19T17:44:54.741Z,42.20
2018-03-19T17:47:23.073Z,43.30
2018-03-19T17:49:51.415Z,44.10
2018-03-19T17:52:19.764Z,44.80
2018-03-19T17:54:48.098Z,45.40
2018-03-19T17:57:16.457Z,46.50
2018-03-19T17:59:44.785Z,46.90
2018-03-19T18:02:13.144Z,47.50
2018-03-19T18:04:41.503Z,48.70
2018-03-19T18:07:09.866Z,49.80
2018-03-19T18:09:38.204Z,51.00
2018-03-19T18:12:06.553Z,52.10
2018-03-19T18:14:35.851Z,52.00
2018-03-19T18:17:04.185Z,53.20
2018-03-19T18:19:32.545Z,54.80
2018-03-19T18:22:00.889Z,54.90
2018-03-19T18:24:29.251Z,55.00
2018-03-19T18:26:57.632Z,55.20
2018-03-19T18:29:25.978Z,56.50
2018-03-19T18:31:54.335Z,56.60
2018-03-19T18:34:22.668Z,57.60
2018-03-19T18:36:51.114Z,59.20
2018-03-19T18:39:19.508Z,61.40
2018-03-19T18:41:47.849Z,63.80
2018-03-19T18:44:16.192Z,65.80
2018-03-19T18:46:44.597Z,67.50
2018-03-19T18:49:12.968Z,68.40
2018-03-19T18:51:41.350Z,68.00
2018-03-19T18:54:09.717Z,69.90
2018-03-19T18:56:38.772Z,71.50
2018-03-19T18:59:07.141Z,71.70
2018-03-19T19:01:35.517Z,71.70
2018-03-19T19:04:03.947Z,72.30
2018-03-19T19:06:32.312Z,74.90
2018-03-19T19:09:00.653Z,75.30
2018-03-19T19:11:29.543Z,75.10
2018-03-19T19:13:57.894Z,78.90
2018-03-19T19:16:26.240Z,80.80
2018-03-19T19:18:54.576Z,79.70
2018-03-19T19:21:22.949Z,77.60
2018-03-19T19:23:51.291Z,77.20
2018-03-19T19:26:19.648Z,78.40
2018-03-19T19:28:48.064Z,77.20
2018-03-19T19:31:16.422Z,77.20
2018-03-19T19:33:44.870Z,76.70
2018-03-19T19:36:13.260Z,77.70
2018-03-19T19:38:41.665Z,78.00
2018-03-19T19:41:09.995Z,77.60
2018-03-19T19:43:38.344Z,77.20
2018-03-19T19:46:06.687Z,77.30
2018-03-19T19:48:35.075Z,78.40
2018-03-19T19:51:03.468Z,79.80
2018-03-19T19:53:31.849Z,80.60
2018-03-19T19:56:00.228Z,79.80
2018-03-19T19:58:29.150Z,80.00
2018-03-19T20:00:57.512Z,80.10
2018-03-19T20:03:25.857Z,80.30
2018-03-19T20:05:54.405Z,81.00
2018-03-19T20:08:22.823Z,80.70
2018-03-19T20:10:51.230Z,80.70
2018-03-19T20:13:19.602Z,79.80
2018-03-19T20:15:48.004Z,79.00
2018-03-19T20:18:16.422Z,79.20
2018-03-19T20:20:44.767Z,79.40
2018-03-19T20:23:13.146Z,80.20
2018-03-19T20:25:41.793Z,79.80
2018-03-19T20:28:10.163Z,79.60
2018-03-19T20:30:38.538Z,80.30
2018-03-19T20:33:06.928Z,80.00
2018-03-19T20:35:35.303Z,78.90
2018-03-19T20:38:03.684Z,78.40
2018-03-19T20:40:32.089Z,77.90
2018-03-19T20:43:00.442Z,77.90
2018-03-19T20:45:28.863Z,76.80
2018-03-19T20:47:57.208Z,77.30
2018-03-19T20:50:25.584Z,77.40
2018-03-19T20:52:53.995Z,77.20
2018-03-19T20:55:22.368Z,77.00
2018-03-19T20:57:50.921Z,77.60
2018-03-19T21:00:19.280Z,78.60
2018-03-19T21:02:47.646Z,77.90
2018-03-19T21:05:16.054Z,77.60
2018-03-19T21:07:44.433Z,76.40
2018-03-19T21:10:12.797Z,76.80
2018-03-19T21:12:41.287Z,77.20
2018-03-19T21:15:09.665Z,78.30
2018-03-19T21:17:38.041Z,78.00
2018-03-19T21:20:06.398Z,78.70
2018-03-19T21:22:34.769Z,74.00
2018-03-19T21:25:03.602Z,74.30
2018-03-19T21:27:31.987Z,74.00
2018-03-19T21:30:00.371Z,73.50
2018-03-19T21:32:28.724Z,74.80
2018-03-19T21:34:57.065Z,73.60
2018-03-19T21:37:25.436Z,74.00
2018-03-19T21:39:54.229Z,72.80
2018-03-19T21:42:22.596Z,71.90
2018-03-19T21:44:51.001Z,73.50
2018-03-19T21:47:19.409Z,72.90
2018-03-19T21:49:47.891Z,73.00
2018-03-19T21:52:17.389Z,73.40
2018-03-19T21:54:45.733Z,73.50
2018-03-19T21:57:14.124Z,72.90
2018-03-19T21:59:42.482Z,73.90
2018-03-19T22:02:10.864Z,74.80
2018-03-19T22:04:39.270Z,74.30
2018-03-19T22:07:07.697Z,75.40
2018-03-19T22:09:36.097Z,77.10
2018-03-19T22:12:04.473Z,77.80
2018-03-19T22:14:32.829Z,77.60
2018-03-19T22:17:01.205Z,76.80
2018-03-19T22:19:29.574Z,76.00
2018-03-19T22:21:57.933Z,76.50
2018-03-19T22:24:26.328Z,76.90
2018-03-19T22:26:54.677Z,77.20
2018-03-19T22:29:23.039Z,77.20
2018-03-19T22:31:51.403Z,78.10
2018-03-19T22:34:19.742Z,77.90
2018-03-19T22:36:48.143Z,79.20
2018-03-19T22:39:16.538Z,78.80
2018-03-19T22:41:44.888Z,77.30
2018-03-19T22:44:13.390Z,77.00
2018-03-19T22:46:41.769Z,77.30
2018-03-19T22:49:10.164Z,77.30
2018-03-19T22:51:38.518Z,77.30
2018-03-19T22:54:06.856Z,78.30
2018-03-19T22:56:35.361Z,77.50
2018-03-19T22:59:03.680Z,77.70
2018-03-19T23:01:32.030Z,79.10
2018-03-19T23:04:00.478Z,80.30
2018-03-19T23:06:28.815Z,81.50
2018-03-19T23:08:57.341Z,81.90
2018-03-19T23:11:25.684Z,82.80
2018-03-19T23:13:54.041Z,83.90
2018-03-19T23:16:22.429Z,84.20
2018-03-19T23:18:50.990Z,84.20
2018-03-19T23:21:19.354Z,84.30
2018-03-19T23:23:47.697Z,85.40
2018-03-19T23:26:16.065Z,85.50
2018-03-19T23:28:44.403Z,85.30
2018-03-19T23:31:12.779Z,85.50
2018-03-19T23:33:41.157Z,86.20
2018-03-19T23:36:09.780Z,86.50
2018-03-19T23:38:38.244Z,86.60
2018-03-19T23:41:06.600Z,86.90
2018-03-19T23:43:35.035Z,87.30
2018-03-19T23:46:03.376Z,87.20
2018-03-19T23:48:31.781Z,87.40
2018-03-19T23:51:00.118Z,87.70
2018-03-19T23:53:28.467Z,88.10
2018-03-19T23:55:56.842Z,88.30
2018-03-19T23:58:25.226Z,88.80
